(°C)
21°
21°
21°
21°
22°
23°
24°
(°C)
23°
23°
23°
23°
24°
24°
25°
NNO
NNO
NNO
NNO
NNO
NO
NO
(km/h)
6-13
6-12
6-12
6-12
6-12
8-14
10-16
(mm)
0
0
0
0
0
0
0
(%)
0
0
0
0
0
0
0

Elevación del sol

/ -26.4°
sun-icon
UV 7
06:37
18:43
(354°)
06:20
18:54

METAR a San Diego (KSAN)

Hora Condiciones Temperatura/
Punto de condensación
Viento Visibilidad Tiempo Nubes Presión Cambiar Bruto
VFR 21.1°C / 18.9°C variable 0kt >10km - Clear 1015 - KSAN 251051Z 00000KT 10SM CLR 21/19 A2999 RMK AO2 SLP155 T02110189
VFR 21.7°C / 18.9°C 340º 4kt >10km - Few Clouds 1200ft 1015 - KSAN 250951Z 34004KT 10SM FEW012 22/19 A3000 RMK AO2 SLP157 T02170189
VFR 21.7°C / 18.3°C 340º 6kt >10km - Clear 1015 - KSAN 250851Z 34006KT 10SM CLR 22/18 A3000 RMK AO2 SLP159 T02170183 58009
VFR 21.7°C / 18.3°C 330º 3kt >10km - Clear 1016 - KSAN 250751Z 33003KT 10SM CLR 22/18 A3001 RMK AO2 SLP162 T02170183 402720200
VFR 22.2°C / 17.2°C 340º 5kt >10km - Clear 1016 - KSAN 250651Z 34005KT 10SM CLR 22/17 A3002 RMK AO2 SLP166 T02220172
VFR 22.2°C / 17.8°C variable 0kt >10km - Clear 1016 - KSAN 250551Z 00000KT 10SM CLR 22/18 A3003 RMK AO2 SLP168 T02220178 10267 20222 51008
VFR 22.2°C / 18.9°C 310º 4kt >10km - Few Clouds 25000ft 1016 - KSAN 250451Z 31004KT 10SM FEW250 22/19 A3003 RMK AO2 SLP167 T02220189
VFR 22.8°C / 18.9°C 320º 5kt >10km - Few Clouds 3000ft
Few Clouds 25000ft
1016 - KSAN 250351Z 32005KT 10SM FEW030 FEW250 23/19 A3002 RMK AO2 SLP164 T02280189
VFR 23.3°C / 18.9°C 300º 4kt >10km - Few Clouds 3000ft
Scattered Clouds 25000ft
1016 - KSAN 250251Z 30004KT 10SM FEW030 SCT250 23/19 A3000 RMK AO2 SLP160 T02330189 53013
VFR 23.9°C / 18.3°C 300º 5kt >10km - Few Clouds 3000ft
Scattered Clouds 25000ft
1015 - KSAN 250151Z 30005KT 10SM FEW030 SCT250 24/18 A2999 RMK AO2 SLP155 T02390183
VFR 25°C / 18.9°C 290º 8kt >10km - Few Clouds 3000ft
Scattered Clouds 25000ft
1014 - KSAN 250051Z 29008KT 10SM FEW030 SCT250 25/19 A2997 RMK AO2 SLP148 T02500189
VFR 26.1°C / 17.2°C 290º 9kt >10km - Few Clouds 3000ft
Scattered Clouds 25000ft
1014 - KSAN 242351Z 29009KT 10SM FEW030 SCT250 26/17 A2997 RMK AO2 SLP147 T02610172 10272 20256 56007
VFR 26.7°C / 14.4°C 310º 9kt Gust 16kt >10km - Few Clouds 3000ft
Scattered Clouds 25000ft
1014 - KSAN 242251Z 31009G16KT 10SM FEW030 SCT250 27/14 A2997 RMK AO2 SLP148 T02670144
VFR 26.7°C / 17.8°C 290º 11kt Gust 16kt >10km - Few Clouds 3000ft
Scattered Clouds 25000ft
1015 - KSAN 242151Z 29011G16KT 10SM FEW030 SCT250 27/18 A2998 RMK AO2 SLP150 T02670178
VFR 25.6°C / 18.9°C 310º 10kt >10km - Few Clouds 3000ft
Scattered Clouds 25000ft
1015 - KSAN 242051Z 31010KT 10SM FEW030 SCT250 26/19 A2999 RMK AO2 SLP155 T02560189 58011
VFR 26.1°C / 19.4°C 300º 10kt >10km - Broken Clouds 25000ft 1016 - KSAN 241951Z 30010KT 10SM BKN250 26/19 A3001 RMK AO2 SLP160 T02610194
VFR 26.1°C / 17.2°C 300º 9kt >10km - Few Clouds 25000ft 1016 - KSAN 241851Z 30009KT 10SM FEW250 26/17 A3001 RMK AO2 SLP163 T02610172
VFR 26.7°C / 17.2°C 290º 7kt >10km - Few Clouds 25000ft 1016 - KSAN 241751Z 29007KT 10SM FEW250 27/17 A3002 RMK AO2 SLP166 T02670172 10267 20200 51008
VFR 25.6°C / 18.3°C variable 4kt >10km - Scattered Clouds 25000ft 1016 - KSAN 241651Z VRB04KT 10SM SCT250 26/18 A3002 RMK AO2 SLP165 T02560183
VFR 21.7°C / 17.2°C 340º 4kt >10km - Scattered Clouds 25000ft 1015 - KSAN 241451Z 34004KT 10SM SCT250 22/17 A3000 RMK AO2 SLP157 T02170172 53012
VFR 20°C / 16.7°C 330º 3kt >10km - Scattered Clouds 25000ft 1015 - KSAN 241351Z 33003KT 10SM SCT250 20/17 A2998 RMK AO2 SLP152 T02000167
VFR 20.6°C / 17.8°C variable 0kt >10km - Scattered Clouds 25000ft 1014 - KSAN 241251Z 00000KT 10SM SCT250 21/18 A2997 RMK AO2 SLP148 T02060178
VFR 20.6°C / 17.8°C 320º 3kt >10km - Scattered Clouds 25000ft 1014 - KSAN 241151Z 32003KT 10SM SCT250 21/18 A2996 RMK AO2 SLP146 T02060178 10222 20206 56003
VFR 20.6°C / 17.8°C 310º 3kt >10km - Scattered Clouds 25000ft 1014 - KSAN 241051Z 31003KT 10SM SCT250 21/18 A2996 RMK AO2 SLP146 T02060178

VFR

21.1°C / 18.9°C

[Más]
Viento variable 0kt
Visibilidad >10km
Tiempo -
Nubes Clear
Presión 1015
Cambiar -
Bruto KSAN 251051Z 00000KT 10SM CLR 21/19 A2999 RMK AO2 SLP155 T02110189

VFR

21.7°C / 18.9°C

[Más]
Viento 340º 4kt
Visibilidad >10km
Tiempo -
Nubes Few Clouds 1200ft
Presión 1015
Cambiar -
Bruto KSAN 250951Z 34004KT 10SM FEW012 22/19 A3000 RMK AO2 SLP157 T02170189

VFR

21.7°C / 18.3°C

[Más]
Viento 340º 6kt
Visibilidad >10km
Tiempo -
Nubes Clear
Presión 1015
Cambiar -
Bruto KSAN 250851Z 34006KT 10SM CLR 22/18 A3000 RMK AO2 SLP159 T02170183 58009

VFR

21.7°C / 18.3°C

[Más]
Viento 330º 3kt
Visibilidad >10km
Tiempo -
Nubes Clear
Presión 1016
Cambiar -
Bruto KSAN 250751Z 33003KT 10SM CLR 22/18 A3001 RMK AO2 SLP162 T02170183 402720200

VFR

22.2°C / 17.2°C

[Más]
Viento 340º 5kt
Visibilidad >10km
Tiempo -
Nubes Clear
Presión 1016
Cambiar -
Bruto KSAN 250651Z 34005KT 10SM CLR 22/17 A3002 RMK AO2 SLP166 T02220172

VFR

22.2°C / 17.8°C

[Más]
Viento variable 0kt
Visibilidad >10km
Tiempo -
Nubes Clear
Presión 1016
Cambiar -
Bruto KSAN 250551Z 00000KT 10SM CLR 22/18 A3003 RMK AO2 SLP168 T02220178 10267 20222 51008

VFR

22.2°C / 18.9°C

[Más]
Viento 310º 4kt
Visibilidad >10km
Tiempo -
Nubes Few Clouds 25000ft
Presión 1016
Cambiar -
Bruto KSAN 250451Z 31004KT 10SM FEW250 22/19 A3003 RMK AO2 SLP167 T02220189

VFR

22.8°C / 18.9°C

[Más]
Viento 320º 5kt
Visibilidad >10km
Tiempo -
Nubes Few Clouds 3000ft
Few Clouds 25000ft
Presión 1016
Cambiar -
Bruto KSAN 250351Z 32005KT 10SM FEW030 FEW250 23/19 A3002 RMK AO2 SLP164 T02280189

VFR

23.3°C / 18.9°C

[Más]
Viento 300º 4kt
Visibilidad >10km
Tiempo -
Nubes Few Clouds 3000ft
Scattered Clouds 25000ft
Presión 1016
Cambiar -
Bruto KSAN 250251Z 30004KT 10SM FEW030 SCT250 23/19 A3000 RMK AO2 SLP160 T02330189 53013

VFR

23.9°C / 18.3°C

[Más]
Viento 300º 5kt
Visibilidad >10km
Tiempo -
Nubes Few Clouds 3000ft
Scattered Clouds 25000ft
Presión 1015
Cambiar -
Bruto KSAN 250151Z 30005KT 10SM FEW030 SCT250 24/18 A2999 RMK AO2 SLP155 T02390183

VFR

25°C / 18.9°C

[Más]
Viento 290º 8kt
Visibilidad >10km
Tiempo -
Nubes Few Clouds 3000ft
Scattered Clouds 25000ft
Presión 1014
Cambiar -
Bruto KSAN 250051Z 29008KT 10SM FEW030 SCT250 25/19 A2997 RMK AO2 SLP148 T02500189

VFR

26.1°C / 17.2°C

[Más]
Viento 290º 9kt
Visibilidad >10km
Tiempo -
Nubes Few Clouds 3000ft
Scattered Clouds 25000ft
Presión 1014
Cambiar -
Bruto KSAN 242351Z 29009KT 10SM FEW030 SCT250 26/17 A2997 RMK AO2 SLP147 T02610172 10272 20256 56007

VFR

26.7°C / 14.4°C

[Más]
Viento 310º 9kt Gust 16kt
Visibilidad >10km
Tiempo -
Nubes Few Clouds 3000ft
Scattered Clouds 25000ft
Presión 1014
Cambiar -
Bruto KSAN 242251Z 31009G16KT 10SM FEW030 SCT250 27/14 A2997 RMK AO2 SLP148 T02670144

VFR

26.7°C / 17.8°C

[Más]
Viento 290º 11kt Gust 16kt
Visibilidad >10km
Tiempo -
Nubes Few Clouds 3000ft
Scattered Clouds 25000ft
Presión 1015
Cambiar -
Bruto KSAN 242151Z 29011G16KT 10SM FEW030 SCT250 27/18 A2998 RMK AO2 SLP150 T02670178

VFR

25.6°C / 18.9°C

[Más]
Viento 310º 10kt
Visibilidad >10km
Tiempo -
Nubes Few Clouds 3000ft
Scattered Clouds 25000ft
Presión 1015
Cambiar -
Bruto KSAN 242051Z 31010KT 10SM FEW030 SCT250 26/19 A2999 RMK AO2 SLP155 T02560189 58011

VFR

26.1°C / 19.4°C

[Más]
Viento 300º 10kt
Visibilidad >10km
Tiempo -
Nubes Broken Clouds 25000ft
Presión 1016
Cambiar -
Bruto KSAN 241951Z 30010KT 10SM BKN250 26/19 A3001 RMK AO2 SLP160 T02610194

VFR

26.1°C / 17.2°C

[Más]
Viento 300º 9kt
Visibilidad >10km
Tiempo -
Nubes Few Clouds 25000ft
Presión 1016
Cambiar -
Bruto KSAN 241851Z 30009KT 10SM FEW250 26/17 A3001 RMK AO2 SLP163 T02610172

VFR

26.7°C / 17.2°C

[Más]
Viento 290º 7kt
Visibilidad >10km
Tiempo -
Nubes Few Clouds 25000ft
Presión 1016
Cambiar -
Bruto KSAN 241751Z 29007KT 10SM FEW250 27/17 A3002 RMK AO2 SLP166 T02670172 10267 20200 51008

VFR

25.6°C / 18.3°C

[Más]
Viento variable 4kt
Visibilidad >10km
Tiempo -
Nubes Scattered Clouds 25000ft
Presión 1016
Cambiar -
Bruto KSAN 241651Z VRB04KT 10SM SCT250 26/18 A3002 RMK AO2 SLP165 T02560183

VFR

21.7°C / 17.2°C

[Más]
Viento 340º 4kt
Visibilidad >10km
Tiempo -
Nubes Scattered Clouds 25000ft
Presión 1015
Cambiar -
Bruto KSAN 241451Z 34004KT 10SM SCT250 22/17 A3000 RMK AO2 SLP157 T02170172 53012

VFR

20°C / 16.7°C

[Más]
Viento 330º 3kt
Visibilidad >10km
Tiempo -
Nubes Scattered Clouds 25000ft
Presión 1015
Cambiar -
Bruto KSAN 241351Z 33003KT 10SM SCT250 20/17 A2998 RMK AO2 SLP152 T02000167

VFR

20.6°C / 17.8°C

[Más]
Viento variable 0kt
Visibilidad >10km
Tiempo -
Nubes Scattered Clouds 25000ft
Presión 1014
Cambiar -
Bruto KSAN 241251Z 00000KT 10SM SCT250 21/18 A2997 RMK AO2 SLP148 T02060178

VFR

20.6°C / 17.8°C

[Más]
Viento 320º 3kt
Visibilidad >10km
Tiempo -
Nubes Scattered Clouds 25000ft
Presión 1014
Cambiar -
Bruto KSAN 241151Z 32003KT 10SM SCT250 21/18 A2996 RMK AO2 SLP146 T02060178 10222 20206 56003

VFR

20.6°C / 17.8°C

[Más]
Viento 310º 3kt
Visibilidad >10km
Tiempo -
Nubes Scattered Clouds 25000ft
Presión 1014
Cambiar -
Bruto KSAN 241051Z 31003KT 10SM SCT250 21/18 A2996 RMK AO2 SLP146 T02060178

TAF a San Diego (KSAN)

From till


From till Wind variable 4kt. Visibility 10km or more. Few Clouds 25000ft.
From till Wind 300º 12kt. Visibility 10km or more. Scattered Clouds 25000ft.
From till Wind variable 4kt. Visibility 10km or more. Few Clouds 25000ft.

Bruto: KSAN 251126Z 2512/2618 VRB04KT P6SM FEW250 FM251900 30012KT P6SM SCT250 FM260300 VRB04KT P6SM FEW250

Radar y precipitación nowcast para San Diego

llovizna
Leve
Moderado
Fuerte
Muy fuerte
Granizo

El marcador del lugar se coloca en San Diego. Esta animación muestra el radar de precipitaciones hasta la última hora, así como 1h de previsión. Las lloviznas o las nevadas ligeras pueden ser invisibles para el radar. La intensidad de la precipitación está codificada por colores, que van del azul claro al naranja.

Imágenes actuales de satélite para San Diego, Estados Unidos

El marcador del lugar se coloca en San Diego. [Más]

La imagen de satélite en tiempo real se aprovecha de la combinación de bandas de la luz visible y de la luz infrarroja. Cómo se pueden detectar cambios de temperaturas a través de la banda infrarrojo, la imagen no aparece oscura de noche. No obstante, la niebla y las nubes bajas son apenas visibles en las imágenes de infrarrojo ya que las diferencias de temperaturas entre el suelo y la niebla son muy pequeñas, por eso, son casi invisibles durante la noche. Las imágenes de satélite del Meteosat (Europa) son actualizados en tiempo real cada 5 minutos. Las imágenes del GOES-16/GOES-17 (América del Norte y América del Sur) y Himawari (Asia) son actualizadas cada 10 minutos.

Volver al principio